createdAt,value
2019-02-27T00:00:43.966Z,20.83
2019-02-27T00:02:44.806Z,22.53
2019-02-27T00:04:45.741Z,29.93
2019-02-27T00:06:47.897Z,23.50
2019-02-27T00:08:49.352Z,25.47
2019-02-27T00:10:50.472Z,21.50
2019-02-27T00:12:52.462Z,23.50
2019-02-27T00:14:53.473Z,26.77
2019-02-27T00:16:54.293Z,23.97
2019-02-27T00:18:58.559Z,23.50
2019-02-27T00:20:57.900Z,24.63
2019-02-27T00:22:58.753Z,27.73
2019-02-27T00:25:03.009Z,25.43
2019-02-27T00:27:02.638Z,26.03
2019-02-27T00:29:03.798Z,27.17
2019-02-27T00:31:04.632Z,28.30
2019-02-27T00:33:05.484Z,29.23
2019-02-27T00:35:07.356Z,24.03
2019-02-27T00:37:08.677Z,23.37
2019-02-27T00:39:09.517Z,24.57
2019-02-27T00:41:12.815Z,26.67
2019-02-27T00:43:13.160Z,27.10
2019-02-27T00:45:14.005Z,25.00
2019-02-27T00:47:19.721Z,25.37
2019-02-27T00:49:17.602Z,26.80
2019-02-27T00:51:18.473Z,23.83
2019-02-27T00:53:19.304Z,23.63
2019-02-27T00:55:20.140Z,22.47
2019-02-27T00:57:21.428Z,23.60
2019-02-27T00:59:22.324Z,26.07
2019-02-27T01:01:23.156Z,26.53
2019-02-27T01:03:26.276Z,23.30
2019-02-27T01:05:26.769Z,24.00
2019-02-27T01:07:27.692Z,22.43
2019-02-27T01:09:28.557Z,22.80
2019-02-27T01:11:29.409Z,19.30
2019-02-27T01:13:31.259Z,19.13
2019-02-27T01:15:32.728Z,20.70
2019-02-27T01:17:33.573Z,20.63
2019-02-27T01:19:38.463Z,20.63
2019-02-27T01:21:37.520Z,19.20
2019-02-27T01:23:38.372Z,20.37
2019-02-27T01:25:39.232Z,19.43
2019-02-27T01:27:40.057Z,18.33
2019-02-27T01:29:41.180Z,22.17
2019-02-27T01:31:42.029Z,20.53
2019-02-27T01:33:42.862Z,20.90
2019-02-27T01:35:43.721Z,19.33
2019-02-27T01:37:44.845Z,17.60
2019-02-27T01:39:45.682Z,20.27
2019-02-27T01:41:46.526Z,19.90
2019-02-27T01:43:47.640Z,17.90
2019-02-27T01:45:48.487Z,18.80
2019-02-27T01:47:49.320Z,18.43
2019-02-27T01:49:50.144Z,20.67
2019-02-27T01:51:51.004Z,20.00
2019-02-27T01:53:51.856Z,19.93
2019-02-27T01:55:56.185Z,19.03
2019-02-27T01:57:55.419Z,21.30
2019-02-27T01:59:56.273Z,19.77
2019-02-27T02:01:57.129Z,18.87
2019-02-27T02:03:58.020Z,19.50
2019-02-27T02:05:59.772Z,18.00
2019-02-27T02:08:00.980Z,19.43
2019-02-27T02:10:01.819Z,18.63
2019-02-27T02:12:02.653Z,20.43
2019-02-27T02:14:03.510Z,18.30
2019-02-27T02:16:04.464Z,18.20
2019-02-27T02:18:05.572Z,19.10
2019-02-27T02:20:06.429Z,19.33
2019-02-27T02:22:08.898Z,20.10
2019-02-27T02:24:10.342Z,17.57
2019-02-27T02:26:11.188Z,17.43
2019-02-27T02:28:12.099Z,20.63
2019-02-27T02:30:14.911Z,18.67
2019-02-27T02:32:17.370Z,19.97
2019-02-27T02:34:18.496Z,20.77
2019-02-27T02:36:25.096Z,17.13
2019-02-27T02:38:22.065Z,16.97
2019-02-27T02:40:22.892Z,16.70
2019-02-27T02:42:24.689Z,17.43
2019-02-27T02:44:26.280Z,16.33
2019-02-27T02:46:27.126Z,15.97
2019-02-27T02:48:31.117Z,15.80
2019-02-27T02:50:30.913Z,15.43
2019-02-27T02:52:31.775Z,16.97
2019-02-27T02:54:36.432Z,17.70
2019-02-27T02:56:35.362Z,22.60
2019-02-27T02:58:36.218Z,15.20
2019-02-27T03:00:39.026Z,17.67
2019-02-27T03:02:40.077Z,18.67
2019-02-27T03:04:40.905Z,16.70
2019-02-27T03:06:41.750Z,18.80
2019-02-27T03:08:42.617Z,15.67
2019-02-27T03:10:43.828Z,16.03
2019-02-27T03:12:44.769Z,21.07
2019-02-27T03:14:45.602Z,16.43
2019-02-27T03:16:46.420Z,19.70
2019-02-27T03:18:47.276Z,18.37
2019-02-27T03:20:51.877Z,16.43
2019-02-27T03:22:51.106Z,16.90
2019-02-27T03:24:51.957Z,15.87
2019-02-27T03:26:53.243Z,17.53
2019-02-27T03:28:54.208Z,18.10
2019-02-27T03:30:55.053Z,14.47
2019-02-27T03:32:55.915Z,14.70
2019-02-27T03:34:57.028Z,16.60
2019-02-27T03:36:58.103Z,16.20
2019-02-27T03:38:59.418Z,16.07
2019-02-27T03:41:01.255Z,17.23
2019-02-27T03:43:02.090Z,15.17
2019-02-27T03:45:02.926Z,17.37
2019-02-27T03:47:03.752Z,15.80
2019-02-27T03:49:04.727Z,14.83
2019-02-27T03:51:05.649Z,17.80
2019-02-27T03:53:10.844Z,15.90
2019-02-27T03:55:09.233Z,15.13
2019-02-27T03:57:10.071Z,16.20
2019-02-27T03:59:10.890Z,17.23
2019-02-27T04:01:11.753Z,16.80
2019-02-27T04:03:17.125Z,15.63
2019-02-27T04:05:15.582Z,18.27
2019-02-27T04:07:16.413Z,18.10
2019-02-27T04:09:19.816Z,16.90
2019-02-27T04:11:19.997Z,16.63
2019-02-27T04:13:26.654Z,18.23
2019-02-27T04:15:23.929Z,15.17
2019-02-27T04:17:24.762Z,16.20
2019-02-27T04:19:25.621Z,14.33
2019-02-27T04:21:26.455Z,15.13
2019-02-27T04:23:27.538Z,18.07
2019-02-27T04:25:31.082Z,16.63
2019-02-27T04:27:31.392Z,19.83
2019-02-27T04:29:32.245Z,17.73
2019-02-27T04:31:33.324Z,17.33
2019-02-27T04:33:34.417Z,16.00
2019-02-27T04:35:39.493Z,17.13
2019-02-27T04:37:37.992Z,19.33
2019-02-27T04:39:38.885Z,16.57
2019-02-27T04:41:40.048Z,19.10
2019-02-27T04:43:40.908Z,17.93
2019-02-27T04:45:43.901Z,16.87
2019-02-27T04:47:44.782Z,19.93
2019-02-27T04:49:45.630Z,16.43
2019-02-27T04:51:48.113Z,18.30
2019-02-27T04:53:49.465Z,19.20
2019-02-27T04:55:50.632Z,20.83
2019-02-27T04:57:52.152Z,14.83
2019-02-27T04:59:52.976Z,16.60
2019-02-27T05:01:53.825Z,16.13
2019-02-27T05:03:54.715Z,17.47
2019-02-27T05:05:55.605Z,19.07
2019-02-27T05:07:56.444Z,18.60
2019-02-27T05:09:57.293Z,22.30
2019-02-27T05:11:58.137Z,16.67
2019-02-27T05:13:58.964Z,17.00
2019-02-27T05:15:59.804Z,17.60
2019-02-27T05:18:00.668Z,16.53
2019-02-27T05:20:01.815Z,17.83
2019-02-27T05:22:02.956Z,18.87
2019-02-27T05:24:05.149Z,16.33
2019-02-27T05:26:06.568Z,14.60
2019-02-27T05:28:07.504Z,16.37
2019-02-27T05:30:12.053Z,15.43
2019-02-27T05:32:11.080Z,16.53
2019-02-27T05:34:13.599Z,16.97
2019-02-27T05:36:14.688Z,19.50
2019-02-27T05:38:15.512Z,18.50
2019-02-27T05:40:16.352Z,18.57
2019-02-27T05:42:17.201Z,21.90
2019-02-27T05:44:21.423Z,16.20
2019-02-27T05:46:20.780Z,19.73
2019-02-27T05:48:21.651Z,17.60
2019-02-27T05:50:22.514Z,22.17
2019-02-27T05:52:23.373Z,17.57
2019-02-27T05:54:24.447Z,21.13
2019-02-27T05:56:25.333Z,19.00
2019-02-27T05:58:26.164Z,18.80
2019-02-27T06:00:27.000Z,19.20
2019-02-27T06:02:27.829Z,20.00
2019-02-27T06:04:28.681Z,18.43
2019-02-27T06:06:29.513Z,17.70
2019-02-27T06:08:35.131Z,19.13
2019-02-27T06:10:33.433Z,16.97
2019-02-27T06:12:34.637Z,17.53
2019-02-27T06:14:35.473Z,20.40
2019-02-27T06:16:37.268Z,19.37
2019-02-27T06:18:39.066Z,17.27
2019-02-27T06:20:42.005Z,18.57
2019-02-27T06:22:42.996Z,18.03
2019-02-27T06:24:45.555Z,17.93
2019-02-27T06:26:46.577Z,20.63
2019-02-27T06:28:47.424Z,18.37
2019-02-27T06:30:48.294Z,22.73
2019-02-27T06:32:49.117Z,19.60
2019-02-27T06:34:49.956Z,19.47
2019-02-27T06:36:50.813Z,17.27
2019-02-27T06:38:51.649Z,21.40
2019-02-27T06:40:52.769Z,23.87
2019-02-27T06:42:54.409Z,18.97
2019-02-27T06:44:55.468Z,19.43
2019-02-27T06:46:56.325Z,19.43
2019-02-27T06:48:57.157Z,19.27
2019-02-27T06:50:58.242Z,21.67
2019-02-27T06:53:00.758Z,19.90
2019-02-27T06:55:01.877Z,19.93
2019-02-27T06:57:05.345Z,19.70
2019-02-27T06:59:05.468Z,18.73
2019-02-27T07:01:09.184Z,26.67
2019-02-27T07:03:09.053Z,24.20
2019-02-27T07:05:13.311Z,24.13
2019-02-27T07:07:12.660Z,21.70
2019-02-27T07:09:13.836Z,23.13
2019-02-27T07:11:14.697Z,18.40
2019-02-27T07:13:15.545Z,28.53
2019-02-27T07:15:16.389Z,25.33
2019-02-27T07:17:17.493Z,22.77
2019-02-27T07:19:18.625Z,23.33
2019-02-27T07:21:19.472Z,24.40
2019-02-27T07:23:23.603Z,21.43
2019-02-27T07:25:23.352Z,20.77
2019-02-27T07:27:24.172Z,20.03
2019-02-27T07:29:27.455Z,22.50
2019-02-27T07:31:27.769Z,23.83
2019-02-27T07:33:28.627Z,23.67
2019-02-27T07:35:29.464Z,20.53
2019-02-27T07:37:30.641Z,20.17
2019-02-27T07:39:32.797Z,18.90
2019-02-27T07:41:34.253Z,22.33
2019-02-27T07:43:35.120Z,16.53
2019-02-27T07:45:35.969Z,20.30
2019-02-27T07:47:36.825Z,16.27
2019-02-27T07:49:37.829Z,16.33
2019-02-27T07:51:39.038Z,23.47
2019-02-27T07:53:40.152Z,20.03
2019-02-27T07:55:41.301Z,19.60
2019-02-27T07:57:42.152Z,19.87
2019-02-27T07:59:43.320Z,17.93
2019-02-27T08:01:44.312Z,21.40
2019-02-27T08:03:45.835Z,20.17
2019-02-27T08:05:46.809Z,19.53
2019-02-27T08:07:49.149Z,18.80
2019-02-27T08:09:50.522Z,20.87
2019-02-27T08:11:51.666Z,20.10
2019-02-27T08:13:52.504Z,18.47
2019-02-27T08:15:53.341Z,16.50
2019-02-27T08:17:57.606Z,20.93
2019-02-27T08:19:56.932Z,17.97
2019-02-27T08:21:57.780Z,18.73
2019-02-27T08:23:58.630Z,25.07
2019-02-27T08:25:59.452Z,24.20
2019-02-27T08:28:00.296Z,27.03
2019-02-27T08:30:01.138Z,21.80
2019-02-27T08:32:01.978Z,22.70
2019-02-27T08:34:02.908Z,17.53
2019-02-27T08:36:03.869Z,18.40
2019-02-27T08:38:04.761Z,16.63
2019-02-27T08:40:05.709Z,22.40
2019-02-27T08:42:06.641Z,17.57
2019-02-27T08:44:07.568Z,17.20
2019-02-27T08:46:08.423Z,16.90
2019-02-27T08:48:09.285Z,16.87
2019-02-27T08:50:10.137Z,18.37
2019-02-27T08:52:13.074Z,15.87
2019-02-27T08:54:13.741Z,16.23
2019-02-27T08:56:14.602Z,18.37
2019-02-27T08:58:15.437Z,18.43
2019-02-27T09:00:16.389Z,17.93
2019-02-27T09:02:17.225Z,17.43
2019-02-27T09:04:18.336Z,15.00
2019-02-27T09:06:19.178Z,15.03
2019-02-27T09:08:20.017Z,13.73
2019-02-27T09:10:23.336Z,13.70
2019-02-27T09:12:23.612Z,14.67
2019-02-27T09:14:24.476Z,14.87
2019-02-27T09:16:26.114Z,14.23
2019-02-27T09:18:27.568Z,16.93
2019-02-27T09:20:28.421Z,13.53
2019-02-27T09:22:29.328Z,14.10
2019-02-27T09:24:30.268Z,13.50
2019-02-27T09:26:35.771Z,16.27
2019-02-27T09:28:34.100Z,15.03
2019-02-27T09:30:34.957Z,16.53
2019-02-27T09:32:35.793Z,13.13
2019-02-27T09:34:36.637Z,12.30
2019-02-27T09:36:37.917Z,14.80
2019-02-27T09:38:38.765Z,14.07
2019-02-27T09:40:39.731Z,16.97
2019-02-27T09:42:40.756Z,14.43
2019-02-27T09:44:41.980Z,13.80
2019-02-27T09:46:42.816Z,16.10
2019-02-27T09:48:43.649Z,15.70
2019-02-27T09:50:47.586Z,17.03
2019-02-27T09:52:47.264Z,16.87
2019-02-27T09:54:48.112Z,15.67
2019-02-27T09:56:48.940Z,14.57
2019-02-27T09:58:49.789Z,17.20
2019-02-27T10:00:50.900Z,16.20
2019-02-27T10:02:51.737Z,14.63
2019-02-27T10:04:52.597Z,14.17
2019-02-27T10:06:53.429Z,13.93
2019-02-27T10:08:56.502Z,15.23
2019-02-27T10:10:57.116Z,16.67
2019-02-27T10:12:59.843Z,16.57
2019-02-27T10:15:00.836Z,16.57
2019-02-27T10:17:01.677Z,18.13
2019-02-27T10:19:02.523Z,18.17
2019-02-27T10:21:03.356Z,19.50
2019-02-27T10:23:04.308Z,20.77
2019-02-27T10:25:05.146Z,18.27
2019-02-27T10:27:06.332Z,18.73
2019-02-27T10:29:07.280Z,17.93
2019-02-27T10:31:08.141Z,18.23
2019-02-27T10:33:11.171Z,18.93
2019-02-27T10:35:12.020Z,15.53
2019-02-27T10:37:14.569Z,19.30
2019-02-27T10:39:15.621Z,15.53
2019-02-27T10:41:16.473Z,19.13
2019-02-27T10:43:17.308Z,16.43
2019-02-27T10:45:18.162Z,15.93
2019-02-27T10:47:19.004Z,17.00
2019-02-27T10:49:21.843Z,22.33
2019-02-27T10:51:22.629Z,15.05
2019-02-27T10:53:27.181Z,17.92
2019-02-27T10:55:27.102Z,14.33
2019-02-27T10:57:31.419Z,12.28
2019-02-27T10:59:30.941Z,10.87
2019-02-27T11:01:33.239Z,13.57
2019-02-27T11:03:34.552Z,12.33
2019-02-27T11:05:35.426Z,11.40
2019-02-27T11:07:36.281Z,11.12
2019-02-27T11:09:40.842Z,8.33
2019-02-27T11:11:39.888Z,7.83
2019-02-27T11:13:40.738Z,7.58
2019-02-27T11:15:44.035Z,7.97
2019-02-27T11:17:44.355Z,6.37
2019-02-27T11:19:45.207Z,8.57
2019-02-27T11:21:46.057Z,7.90
2019-02-27T11:23:46.917Z,9.83
2019-02-27T11:25:47.752Z,8.98
2019-02-27T11:27:48.593Z,7.42
2019-02-27T11:29:49.447Z,8.75
2019-02-27T11:31:50.276Z,7.50
2019-02-27T11:33:51.526Z,7.47
2019-02-27T11:35:52.795Z,6.00
2019-02-27T11:37:53.832Z,6.85
2019-02-27T11:39:54.680Z,6.37
2019-02-27T11:41:55.542Z,5.12
2019-02-27T11:43:56.376Z,7.58
2019-02-27T11:45:58.694Z,7.42
2019-02-27T11:47:59.593Z,8.63
2019-02-27T11:50:00.456Z,7.58
2019-02-27T11:52:01.573Z,10.35
2019-02-27T11:54:04.230Z,7.78
2019-02-27T11:56:05.609Z,10.23
2019-02-27T11:58:06.602Z,8.37
2019-02-27T12:00:09.432Z,9.18
2019-02-27T12:02:10.342Z,8.35
2019-02-27T12:04:11.255Z,10.23
2019-02-27T12:06:12.158Z,8.98
2019-02-27T12:08:13.119Z,8.90
2019-02-27T12:10:14.020Z,11.48
2019-02-27T12:12:14.918Z,9.58
2019-02-27T12:14:16.159Z,9.48
2019-02-27T12:16:18.310Z,8.50
2019-02-27T12:18:19.549Z,10.57
2019-02-27T12:20:20.565Z,9.47
2019-02-27T12:22:21.396Z,11.90
2019-02-27T12:24:22.302Z,11.00
2019-02-27T12:26:23.169Z,10.30
2019-02-27T12:28:24.491Z,9.87
2019-02-27T12:30:25.383Z,10.20
2019-02-27T12:32:26.367Z,9.03
2019-02-27T12:34:27.204Z,10.27
2019-02-27T12:36:28.097Z,8.03
2019-02-27T12:38:29.273Z,10.67
2019-02-27T12:40:30.197Z,9.58
2019-02-27T12:42:37.121Z,9.33
2019-02-27T12:44:34.585Z,9.57
2019-02-27T12:46:37.059Z,10.03
2019-02-27T12:48:38.082Z,9.97
2019-02-27T12:50:38.999Z,9.00
2019-02-27T12:52:44.386Z,9.53
2019-02-27T12:54:42.647Z,12.10
2019-02-27T12:56:44.547Z,9.20
2019-02-27T12:58:45.738Z,11.53
2019-02-27T13:00:46.644Z,9.57
2019-02-27T13:02:47.677Z,11.93
2019-02-27T13:04:52.469Z,8.38
2019-02-27T13:06:51.472Z,10.30
2019-02-27T13:08:52.873Z,11.90
2019-02-27T13:10:54.421Z,10.80
2019-02-27T13:12:55.305Z,9.87
2019-02-27T13:14:56.296Z,11.07
2019-02-27T13:16:57.418Z,8.10
2019-02-27T13:18:58.319Z,10.55
2019-02-27T13:20:59.178Z,8.95
2019-02-27T13:23:04.073Z,10.20
2019-02-27T13:25:03.110Z,8.57
2019-02-27T13:27:08.786Z,8.53
2019-02-27T13:29:06.989Z,7.75
2019-02-27T13:31:07.840Z,8.30
2019-02-27T13:33:08.715Z,11.93
2019-02-27T13:35:09.548Z,8.00
2019-02-27T13:37:10.713Z,8.37
2019-02-27T13:39:11.572Z,9.08
2019-02-27T13:41:12.420Z,8.33
2019-02-27T13:43:13.270Z,10.03
2019-02-27T13:45:14.460Z,8.20
2019-02-27T13:47:15.399Z,9.13
2019-02-27T13:49:16.254Z,8.57
2019-02-27T13:51:17.103Z,9.90
2019-02-27T13:53:17.908Z,9.13
2019-02-27T13:55:18.785Z,9.80
2019-02-27T13:57:25.054Z,8.50
2019-02-27T13:59:22.712Z,9.88
2019-02-27T14:01:25.249Z,11.63
2019-02-27T14:03:26.450Z,9.30
2019-02-27T14:05:29.307Z,10.13
2019-02-27T14:07:30.053Z,7.65
2019-02-27T14:09:30.922Z,11.47
2019-02-27T14:11:31.870Z,11.50
2019-02-27T14:13:32.748Z,13.07
2019-02-27T14:15:33.918Z,11.20
2019-02-27T14:17:34.765Z,8.90
2019-02-27T14:19:36.622Z,9.67
2019-02-27T14:21:39.571Z,9.00
2019-02-27T14:23:40.472Z,9.00
2019-02-27T14:25:41.352Z,9.63
2019-02-27T14:27:42.206Z,8.83
2019-02-27T14:29:43.061Z,9.15
2019-02-27T14:31:44.192Z,8.87
2019-02-27T14:33:45.355Z,8.63
2019-02-27T14:35:46.521Z,9.30
2019-02-27T14:37:50.129Z,10.13
2019-02-27T14:39:50.600Z,8.27
2019-02-27T14:41:51.772Z,10.07
2019-02-27T14:43:52.839Z,11.68
2019-02-27T14:45:53.782Z,9.13
2019-02-27T14:47:54.671Z,9.48
2019-02-27T14:49:55.577Z,9.10
2019-02-27T14:51:56.485Z,7.80
2019-02-27T14:53:57.431Z,8.08
2019-02-27T14:55:58.624Z,8.30
2019-02-27T14:57:59.715Z,9.28
2019-02-27T15:00:02.519Z,9.93
2019-02-27T15:02:03.552Z,8.98
2019-02-27T15:04:04.491Z,8.95
2019-02-27T15:06:05.509Z,8.08
2019-02-27T15:08:06.549Z,11.75
2019-02-27T15:10:08.045Z,9.67
2019-02-27T15:12:09.132Z,10.40
2019-02-27T15:14:10.046Z,14.03
2019-02-27T15:16:10.940Z,12.13
2019-02-27T15:18:13.959Z,11.93
2019-02-27T15:20:14.786Z,12.67
2019-02-27T15:22:20.372Z,13.43
2019-02-27T15:24:19.517Z,12.30
2019-02-27T15:26:20.742Z,13.63
2019-02-27T15:28:21.760Z,12.37
2019-02-27T15:30:22.806Z,13.07
2019-02-27T15:32:26.917Z,13.97
2019-02-27T15:34:26.931Z,11.83
2019-02-27T15:36:30.238Z,14.38
2019-02-27T15:38:31.668Z,14.23
2019-02-27T15:40:33.033Z,11.77
2019-02-27T15:42:34.371Z,14.37
2019-02-27T15:44:35.309Z,13.97
2019-02-27T15:46:36.197Z,11.03
2019-02-27T15:48:38.125Z,15.43
2019-02-27T15:50:40.235Z,13.60
2019-02-27T15:52:41.457Z,13.50
2019-02-27T15:54:42.424Z,12.43
2019-02-27T15:56:45.491Z,15.17
2019-02-27T15:58:46.341Z,12.97
2019-02-27T16:00:52.156Z,12.70
2019-02-27T16:02:50.269Z,12.40
2019-02-27T16:04:52.186Z,13.00
2019-02-27T16:06:54.075Z,14.53
2019-02-27T16:08:58.277Z,14.37
2019-02-27T16:10:58.058Z,13.90
2019-02-27T16:13:01.031Z,13.43
2019-02-27T16:15:02.203Z,13.20
2019-02-27T16:17:03.107Z,15.33
2019-02-27T16:19:04.436Z,16.70
2019-02-27T16:21:05.348Z,21.93
2019-02-27T16:23:06.413Z,18.57
2019-02-27T16:25:07.372Z,22.63
2019-02-27T16:27:08.279Z,24.67
2019-02-27T16:29:09.191Z,27.80
2019-02-27T16:31:10.183Z,25.27
2019-02-27T16:33:11.586Z,20.77
2019-02-27T16:35:12.812Z,19.83
2019-02-27T16:37:13.751Z,17.70
2019-02-27T16:39:14.648Z,13.43
2019-02-27T16:41:16.386Z,14.47
2019-02-27T16:43:17.511Z,15.80
2019-02-27T16:45:18.617Z,12.77
2019-02-27T16:47:23.603Z,15.80
2019-02-27T16:49:22.712Z,15.60
2019-02-27T16:51:23.614Z,15.27
2019-02-27T16:53:24.956Z,16.13
2019-02-27T16:55:25.864Z,14.47
2019-02-27T16:57:26.911Z,19.20
2019-02-27T16:59:27.845Z,18.63
2019-02-27T17:01:29.514Z,14.70
2019-02-27T17:03:31.296Z,15.73
2019-02-27T17:05:32.240Z,22.80
2019-02-27T17:07:33.141Z,19.37
2019-02-27T17:09:34.105Z,23.50
2019-02-27T17:11:35.385Z,25.43
2019-02-27T17:13:36.246Z,23.90
2019-02-27T17:15:37.164Z,24.43
2019-02-27T17:17:38.060Z,21.03
2019-02-27T17:19:38.892Z,22.87
2019-02-27T17:21:39.741Z,23.43
2019-02-27T17:23:43.752Z,24.30
2019-02-27T17:25:43.436Z,18.67
2019-02-27T17:27:44.277Z,19.57
2019-02-27T17:29:45.138Z,21.77
2019-02-27T17:31:49.387Z,15.77
2019-02-27T17:33:49.175Z,18.87
2019-02-27T17:35:50.041Z,17.77
2019-02-27T17:37:50.884Z,19.13
2019-02-27T17:39:51.736Z,18.07
2019-02-27T17:41:52.560Z,19.77
2019-02-27T17:43:53.680Z,21.07
2019-02-27T17:45:54.613Z,23.23
2019-02-27T17:47:55.563Z,21.50
2019-02-27T17:49:57.460Z,22.47
2019-02-27T17:51:59.097Z,24.20
2019-02-27T17:53:59.938Z,24.40
2019-02-27T17:56:00.840Z,23.60
2019-02-27T17:58:01.689Z,23.77
2019-02-27T18:00:02.957Z,24.60
2019-02-27T18:02:03.802Z,22.60
2019-02-27T18:04:04.649Z,22.17
2019-02-27T18:06:05.541Z,22.67
2019-02-27T18:08:06.653Z,23.80
2019-02-27T18:10:07.493Z,23.90
2019-02-27T18:12:08.356Z,22.50
2019-02-27T18:14:10.146Z,20.07
2019-02-27T18:16:11.456Z,24.97
2019-02-27T18:18:12.563Z,21.13
2019-02-27T18:20:13.411Z,24.23
2019-02-27T18:22:14.816Z,23.97
2019-02-27T18:24:16.118Z,22.80
2019-02-27T18:26:17.038Z,23.77
2019-02-27T18:28:17.895Z,22.03
2019-02-27T18:30:19.560Z,21.67
2019-02-27T18:32:20.716Z,22.80
2019-02-27T18:34:21.826Z,19.40
2019-02-27T18:36:23.408Z,23.53
2019-02-27T18:38:27.606Z,22.67
2019-02-27T18:40:27.339Z,25.40
2019-02-27T18:42:28.230Z,23.30
2019-02-27T18:44:29.083Z,27.37
2019-02-27T18:46:29.918Z,24.37
2019-02-27T18:48:30.777Z,28.13
2019-02-27T18:50:31.625Z,29.77
2019-02-27T18:52:32.495Z,30.10
2019-02-27T18:54:33.328Z,29.87
2019-02-27T18:56:36.830Z,29.07
2019-02-27T18:58:37.194Z,25.43
2019-02-27T19:00:38.068Z,25.43
2019-02-27T19:02:38.896Z,25.17
2019-02-27T19:04:39.748Z,29.23
2019-02-27T19:06:43.132Z,26.73
2019-02-27T19:08:43.349Z,26.93
2019-02-27T19:10:44.210Z,31.63
2019-02-27T19:12:45.060Z,26.57
2019-02-27T19:14:45.937Z,31.23
2019-02-27T19:16:46.788Z,27.53
2019-02-27T19:18:47.708Z,28.13
2019-02-27T19:20:48.556Z,24.87
2019-02-27T19:22:49.441Z,21.80
2019-02-27T19:24:50.429Z,25.67
2019-02-27T19:26:51.700Z,21.43
2019-02-27T19:28:52.947Z,21.33
2019-02-27T19:30:53.853Z,24.63
2019-02-27T19:32:58.323Z,21.17
2019-02-27T19:34:57.700Z,20.10
2019-02-27T19:36:58.713Z,22.20
2019-02-27T19:38:59.668Z,21.37
2019-02-27T19:41:01.224Z,23.77
2019-02-27T19:43:03.267Z,22.47
2019-02-27T19:45:05.183Z,25.37
2019-02-27T19:47:06.104Z,21.43
2019-02-27T19:49:06.960Z,21.27
2019-02-27T19:51:07.812Z,21.73
2019-02-27T19:53:08.659Z,23.03
2019-02-27T19:55:09.538Z,22.80
2019-02-27T19:57:10.420Z,23.13
2019-02-27T19:59:11.237Z,23.20
2019-02-27T20:01:12.127Z,21.63
2019-02-27T20:03:13.648Z,19.90
2019-02-27T20:05:16.503Z,21.97
2019-02-27T20:07:17.258Z,18.47
2019-02-27T20:09:20.146Z,20.47
2019-02-27T20:11:20.984Z,21.23
2019-02-27T20:13:24.654Z,21.70
2019-02-27T20:15:24.615Z,19.87
2019-02-27T20:17:30.112Z,20.93
2019-02-27T20:19:29.247Z,19.87
2019-02-27T20:21:30.216Z,20.00
2019-02-27T20:23:31.308Z,20.53
2019-02-27T20:25:32.997Z,21.80
2019-02-27T20:27:33.869Z,25.07
2019-02-27T20:29:39.477Z,24.03
2019-02-27T20:31:37.560Z,22.03
2019-02-27T20:33:38.686Z,26.57
2019-02-27T20:35:39.581Z,27.67
2019-02-27T20:37:41.385Z,27.37
2019-02-27T20:39:42.487Z,30.27
2019-02-27T20:41:44.115Z,28.77
2019-02-27T20:43:45.189Z,29.60
2019-02-27T20:45:46.035Z,30.10
2019-02-27T20:47:46.968Z,34.43
2019-02-27T20:49:48.038Z,29.37
2019-02-27T20:51:49.116Z,32.03
2019-02-27T20:53:55.110Z,31.53
2019-02-27T20:55:52.770Z,30.33
2019-02-27T20:57:53.644Z,27.67
2019-02-27T21:00:00.643Z,27.27
2019-02-27T21:01:57.480Z,31.13
2019-02-27T21:04:02.316Z,29.30
2019-02-27T21:06:01.420Z,24.90
2019-02-27T21:08:02.657Z,26.33
2019-02-27T21:10:03.657Z,27.10
2019-02-27T21:12:07.084Z,27.43
2019-02-27T21:14:07.321Z,27.63
2019-02-27T21:16:10.171Z,28.23
2019-02-27T21:18:11.177Z,30.50
2019-02-27T21:20:12.174Z,30.50
2019-02-27T21:22:13.140Z,27.97
2019-02-27T21:24:14.072Z,32.33
2019-02-27T21:26:14.991Z,31.00
2019-02-27T21:28:20.988Z,29.00
2019-02-27T21:30:19.094Z,30.30
2019-02-27T21:32:20.142Z,27.10
2019-02-27T21:34:21.048Z,26.43
2019-02-27T21:36:22.033Z,26.33
2019-02-27T21:38:22.950Z,29.77
2019-02-27T21:40:23.925Z,23.73
2019-02-27T21:42:25.086Z,27.17
2019-02-27T21:44:29.192Z,24.97
2019-02-27T21:46:29.058Z,23.03
2019-02-27T21:48:30.051Z,27.43
2019-02-27T21:50:30.935Z,26.90
2019-02-27T21:52:31.957Z,27.87
2019-02-27T21:54:38.403Z,25.60
2019-02-27T21:56:35.622Z,27.73
2019-02-27T21:58:36.500Z,27.87
2019-02-27T22:00:37.364Z,24.50
2019-02-27T22:02:38.356Z,23.50
2019-02-27T22:04:41.266Z,22.53
2019-02-27T22:06:41.942Z,22.57
2019-02-27T22:08:42.900Z,29.80
2019-02-27T22:10:43.733Z,28.73
2019-02-27T22:12:44.578Z,29.47
2019-02-27T22:14:45.419Z,31.00
2019-02-27T22:16:46.252Z,32.83
2019-02-27T22:18:47.876Z,31.40
2019-02-27T22:20:48.917Z,27.77
2019-02-27T22:22:49.797Z,25.37
2019-02-27T22:24:52.260Z,22.23
2019-02-27T22:26:53.666Z,19.50
2019-02-27T22:28:55.162Z,22.17
2019-02-27T22:30:56.176Z,24.27
2019-02-27T22:32:57.043Z,18.93
2019-02-27T22:34:59.274Z,24.77
2019-02-27T22:37:01.093Z,27.00
2019-02-27T22:39:02.087Z,24.97
2019-02-27T22:41:02.964Z,22.70
2019-02-27T22:43:03.888Z,24.70
2019-02-27T22:45:04.959Z,21.07
2019-02-27T22:47:06.049Z,24.50
2019-02-27T22:49:06.934Z,21.93
2019-02-27T22:51:07.969Z,24.57
2019-02-27T22:53:09.242Z,22.33
2019-02-27T22:55:10.891Z,22.30
2019-02-27T22:57:12.250Z,25.23
2019-02-27T22:59:13.157Z,27.47
2019-02-27T23:01:23.468Z,27.20
2019-02-27T23:03:24.798Z,22.77
2019-02-27T23:05:26.205Z,25.13
2019-02-27T23:07:27.100Z,26.27
2019-02-27T23:09:28.473Z,23.33
2019-02-27T23:11:29.378Z,23.57
2019-02-27T23:13:30.266Z,23.07
2019-02-27T23:15:31.264Z,24.73
2019-02-27T23:17:32.559Z,25.87
2019-02-27T23:19:33.831Z,24.17
2019-02-27T23:21:34.745Z,28.60
2019-02-27T23:23:36.771Z,23.77
2019-02-27T23:25:38.451Z,29.43
2019-02-27T23:27:39.329Z,28.87
2019-02-27T23:29:40.633Z,30.67
2019-02-27T23:31:41.877Z,27.80
2019-02-27T23:33:43.016Z,30.73
2019-02-27T23:35:43.860Z,27.03
2019-02-27T23:37:44.712Z,28.20
2019-02-27T23:39:45.569Z,25.53
2019-02-27T23:41:46.425Z,27.13
2019-02-27T23:43:47.268Z,31.97
2019-02-27T23:45:48.272Z,27.17
2019-02-27T23:47:49.150Z,29.90
2019-02-27T23:49:50.169Z,25.57
2019-02-27T23:51:51.156Z,29.40
2019-02-27T23:53:52.078Z,31.60
2019-02-27T23:55:53.441Z,27.53
2019-02-27T23:57:57.352Z,25.80
2019-02-27T23:59:57.151Z,23.83
